CYSC

Details ICAO CYSC (YSC)
Name SHERBROOKE
Region Canada
Timezone America/Montreal (UTC-4.0)
Plans Departing 21
Arriving 25
Stats Elevation 792 ft / 241 m (AMSL)
Location 45.438492° -71.691369°
Runways 1
Magnetic Variation 15.230° W
Sunrise 2018-05-28 09:05:42 UTC / 2018-05-28 05:05:42 Local
Sunset 2018-05-29 00:25:19 UTC / 2018-05-28 20:25:19 Local
Advertisement - Login to hide

Runways

ID Width Length Bearing (true) Bearing (mag) Surface Threshold Offset Overrun Length
13 150 ft / 46 m 5,988 ft / 1,825 m 118.88° 134.11° Asphalt 0 ft / 0 m 0 ft / 0 m
31 150 ft / 46 m 5,988 ft / 1,825 m 298.90° 314.13° Asphalt 0 ft / 0 m 0 ft / 0 m

Map

Weather


0- 5 10 15 20 25 30 35+ Temperature / ° C

Clouds and Precipitation
Forecast for 2018-05-28 00:00 UTC. Updated 7 hours ago

Ground ~20,000 ft ~40,000 ft Winds

METAR

Not found

TAF

TAF CYSC 272338Z 2800/2803 15010KT P6SM BKN050 OVC080 RMK FCST BASED ON AUTO OBS. NXT FCST WILL BE ISSUED AT 281045Z

Frequencies

Recorded 126.25 MHz AWOS
Tower 123.50 MHz MF
Unicom 123.50 MHz CTAF/UNICOM
Warning: Do not use this data for real-world aviation or navigation. No guarantee of current accuracy is given.